sensor_id;sensor_type;location;lat;lon;timestamp;P1;durP1;ratioP1;P2;durP2;ratioP2
66966;SDS011;53900;51.468;-2.586;2023-06-04T00:00:15;9.07;;;2.08;;
66966;SDS011;53900;51.468;-2.586;2023-06-04T00:02:41;7.30;;;2.13;;
66966;SDS011;53900;51.468;-2.586;2023-06-04T00:05:06;5.60;;;1.95;;
66966;SDS011;53900;51.468;-2.586;2023-06-04T00:07:31;4.53;;;2.15;;
66966;SDS011;53900;51.468;-2.586;2023-06-04T00:09:56;9.38;;;2.38;;
66966;SDS011;53900;51.468;-2.586;2023-06-04T00:12:22;6.03;;;2.00;;
66966;SDS011;53900;51.468;-2.586;2023-06-04T00:14:47;6.15;;;2.17;;
66966;SDS011;53900;51.468;-2.586;2023-06-04T00:17:12;6.82;;;1.67;;
66966;SDS011;53900;51.468;-2.586;2023-06-04T00:19:38;5.20;;;1.95;;
66966;SDS011;53900;51.468;-2.586;2023-06-04T00:22:03;6.35;;;2.30;;
66966;SDS011;53900;51.468;-2.586;2023-06-04T00:24:29;7.00;;;2.22;;
66966;SDS011;53900;51.468;-2.586;2023-06-04T00:26:54;10.35;;;2.55;;
66966;SDS011;53900;51.468;-2.586;2023-06-04T00:29:19;6.85;;;2.05;;
66966;SDS011;53900;51.468;-2.586;2023-06-04T00:31:45;6.03;;;2.55;;
66966;SDS011;53900;51.468;-2.586;2023-06-04T00:34:10;5.78;;;2.20;;
66966;SDS011;53900;51.468;-2.586;2023-06-04T00:36:35;10.15;;;2.30;;
66966;SDS011;53900;51.468;-2.586;2023-06-04T00:39:01;9.55;;;3.15;;
66966;SDS011;53900;51.468;-2.586;2023-06-04T00:41:29;11.85;;;2.30;;
66966;SDS011;53900;51.468;-2.586;2023-06-04T00:43:55;7.32;;;2.50;;
66966;SDS011;53900;51.468;-2.586;2023-06-04T00:46:26;6.68;;;2.22;;
66966;SDS011;53900;51.468;-2.586;2023-06-04T00:48:53;7.43;;;2.30;;
66966;SDS011;53900;51.468;-2.586;2023-06-04T00:51:18;10.30;;;2.50;;
66966;SDS011;53900;51.468;-2.586;2023-06-04T00:53:44;9.98;;;2.30;;
66966;SDS011;53900;51.468;-2.586;2023-06-04T00:56:09;11.75;;;2.50;;
66966;SDS011;53900;51.468;-2.586;2023-06-04T00:58:38;8.07;;;2.67;;
66966;SDS011;53900;51.468;-2.586;2023-06-04T01:01:04;7.65;;;2.33;;
66966;SDS011;53900;51.468;-2.586;2023-06-04T01:03:32;7.78;;;2.20;;
66966;SDS011;53900;51.468;-2.586;2023-06-04T01:06:00;7.55;;;2.28;;
66966;SDS011;53900;51.468;-2.586;2023-06-04T01:08:27;10.30;;;2.28;;
66966;SDS011;53900;51.468;-2.586;2023-06-04T01:10:53;9.77;;;2.75;;
66966;SDS011;53900;51.468;-2.586;2023-06-04T01:13:19;9.73;;;2.35;;
66966;SDS011;53900;51.468;-2.586;2023-06-04T01:15:44;9.65;;;2.40;;
66966;SDS011;53900;51.468;-2.586;2023-06-04T01:18:10;12.75;;;2.90;;
66966;SDS011;53900;51.468;-2.586;2023-06-04T01:20:40;10.43;;;2.70;;
66966;SDS011;53900;51.468;-2.586;2023-06-04T01:25:33;12.73;;;2.60;;
66966;SDS011;53900;51.468;-2.586;2023-06-04T01:27:58;7.75;;;2.28;;
66966;SDS011;53900;51.468;-2.586;2023-06-04T01:30:30;12.45;;;3.10;;
66966;SDS011;53900;51.468;-2.586;2023-06-04T01:32:56;10.50;;;2.85;;
66966;SDS011;53900;51.468;-2.586;2023-06-04T01:35:22;7.13;;;2.60;;
66966;SDS011;53900;51.468;-2.586;2023-06-04T01:37:48;6.53;;;2.15;;
66966;SDS011;53900;51.468;-2.586;2023-06-04T01:40:13;8.68;;;2.17;;
66966;SDS011;53900;51.468;-2.586;2023-06-04T01:42:39;9.48;;;2.78;;
66966;SDS011;53900;51.468;-2.586;2023-06-04T01:45:05;11.80;;;2.50;;
66966;SDS011;53900;51.468;-2.586;2023-06-04T01:47:30;6.53;;;2.45;;
66966;SDS011;53900;51.468;-2.586;2023-06-04T01:49:55;7.93;;;2.22;;
66966;SDS011;53900;51.468;-2.586;2023-06-04T01:52:20;14.55;;;2.75;;
66966;SDS011;53900;51.468;-2.586;2023-06-04T01:54:46;11.13;;;2.45;;
66966;SDS011;53900;51.468;-2.586;2023-06-04T01:57:13;9.38;;;2.40;;
66966;SDS011;53900;51.468;-2.586;2023-06-04T01:59:38;9.63;;;2.33;;
66966;SDS011;53900;51.468;-2.586;2023-06-04T02:02:04;8.93;;;2.40;;
66966;SDS011;53900;51.468;-2.586;2023-06-04T02:04:29;6.50;;;2.40;;
66966;SDS011;53900;51.468;-2.586;2023-06-04T02:06:55;16.90;;;2.58;;
66966;SDS011;53900;51.468;-2.586;2023-06-04T02:09:21;6.95;;;1.77;;
66966;SDS011;53900;51.468;-2.586;2023-06-04T02:11:46;8.77;;;2.20;;
66966;SDS011;53900;51.468;-2.586;2023-06-04T02:14:12;7.13;;;2.45;;
66966;SDS011;53900;51.468;-2.586;2023-06-04T02:16:37;7.13;;;2.17;;
66966;SDS011;53900;51.468;-2.586;2023-06-04T02:19:02;12.00;;;2.63;;
66966;SDS011;53900;51.468;-2.586;2023-06-04T02:21:28;9.57;;;2.08;;
66966;SDS011;53900;51.468;-2.586;2023-06-04T02:23:53;7.15;;;2.15;;
66966;SDS011;53900;51.468;-2.586;2023-06-04T02:26:18;9.45;;;1.98;;
66966;SDS011;53900;51.468;-2.586;2023-06-04T02:28:44;11.00;;;2.55;;
66966;SDS011;53900;51.468;-2.586;2023-06-04T02:31:09;8.85;;;2.10;;
66966;SDS011;53900;51.468;-2.586;2023-06-04T02:33:34;11.68;;;2.10;;
66966;SDS011;53900;51.468;-2.586;2023-06-04T02:36:00;8.00;;;2.60;;
66966;SDS011;53900;51.468;-2.586;2023-06-04T02:38:26;10.93;;;2.42;;
66966;SDS011;53900;51.468;-2.586;2023-06-04T02:40:51;12.18;;;2.22;;
66966;SDS011;53900;51.468;-2.586;2023-06-04T02:43:16;7.72;;;2.38;;
66966;SDS011;53900;51.468;-2.586;2023-06-04T02:45:41;9.15;;;2.40;;
66966;SDS011;53900;51.468;-2.586;2023-06-04T02:48:06;5.78;;;2.00;;
66966;SDS011;53900;51.468;-2.586;2023-06-04T02:50:32;9.23;;;2.60;;
66966;SDS011;53900;51.468;-2.586;2023-06-04T02:52:57;10.40;;;2.53;;
66966;SDS011;53900;51.468;-2.586;2023-06-04T02:55:22;11.05;;;2.17;;
66966;SDS011;53900;51.468;-2.586;2023-06-04T02:57:47;9.23;;;2.10;;
66966;SDS011;53900;51.468;-2.586;2023-06-04T03:00:13;8.80;;;2.35;;
66966;SDS011;53900;51.468;-2.586;2023-06-04T03:02:40;7.88;;;2.08;;
66966;SDS011;53900;51.468;-2.586;2023-06-04T03:05:05;4.90;;;1.83;;
66966;SDS011;53900;51.468;-2.586;2023-06-04T03:07:31;9.30;;;2.33;;
66966;SDS011;53900;51.468;-2.586;2023-06-04T03:09:57;8.68;;;2.20;;
66966;SDS011;53900;51.468;-2.586;2023-06-04T03:12:22;7.97;;;2.08;;
66966;SDS011;53900;51.468;-2.586;2023-06-04T03:14:47;7.78;;;2.38;;
66966;SDS011;53900;51.468;-2.586;2023-06-04T03:17:12;8.88;;;2.13;;
66966;SDS011;53900;51.468;-2.586;2023-06-04T03:19:38;7.10;;;1.90;;
66966;SDS011;53900;51.468;-2.586;2023-06-04T03:22:04;7.57;;;2.10;;
66966;SDS011;53900;51.468;-2.586;2023-06-04T03:24:32;7.30;;;2.10;;
66966;SDS011;53900;51.468;-2.586;2023-06-04T03:26:57;7.88;;;1.88;;
66966;SDS011;53900;51.468;-2.586;2023-06-04T03:29:23;8.95;;;1.83;;
66966;SDS011;53900;51.468;-2.586;2023-06-04T03:31:48;8.23;;;2.17;;
66966;SDS011;53900;51.468;-2.586;2023-06-04T03:34:13;13.38;;;2.30;;
66966;SDS011;53900;51.468;-2.586;2023-06-04T03:36:38;9.52;;;2.72;;
66966;SDS011;53900;51.468;-2.586;2023-06-04T03:39:03;4.40;;;1.92;;
66966;SDS011;53900;51.468;-2.586;2023-06-04T03:41:29;5.97;;;2.08;;
66966;SDS011;53900;51.468;-2.586;2023-06-04T03:43:54;10.05;;;2.10;;
66966;SDS011;53900;51.468;-2.586;2023-06-04T03:46:20;9.55;;;2.30;;
66966;SDS011;53900;51.468;-2.586;2023-06-04T03:48:45;13.98;;;2.22;;
66966;SDS011;53900;51.468;-2.586;2023-06-04T03:51:11;6.25;;;1.65;;
66966;SDS011;53900;51.468;-2.586;2023-06-04T03:53:36;12.98;;;2.55;;
66966;SDS011;53900;51.468;-2.586;2023-06-04T03:56:01;7.25;;;2.00;;
66966;SDS011;53900;51.468;-2.586;2023-06-04T03:58:26;8.75;;;2.17;;
66966;SDS011;53900;51.468;-2.586;2023-06-04T04:00:53;6.47;;;2.05;;
66966;SDS011;53900;51.468;-2.586;2023-06-04T04:03:18;6.75;;;1.67;;
66966;SDS011;53900;51.468;-2.586;2023-06-04T04:05:44;7.78;;;2.38;;
66966;SDS011;53900;51.468;-2.586;2023-06-04T04:08:09;8.13;;;2.40;;
66966;SDS011;53900;51.468;-2.586;2023-06-04T04:10:34;6.78;;;1.90;;
66966;SDS011;53900;51.468;-2.586;2023-06-04T04:13:00;13.75;;;2.20;;
66966;SDS011;53900;51.468;-2.586;2023-06-04T04:15:25;8.50;;;2.05;;
66966;SDS011;53900;51.468;-2.586;2023-06-04T04:17:50;7.57;;;2.45;;
66966;SDS011;53900;51.468;-2.586;2023-06-04T04:20:15;7.22;;;1.90;;
66966;SDS011;53900;51.468;-2.586;2023-06-04T04:22:41;9.30;;;2.45;;
66966;SDS011;53900;51.468;-2.586;2023-06-04T04:25:07;7.65;;;2.58;;
66966;SDS011;53900;51.468;-2.586;2023-06-04T04:27:33;6.60;;;2.17;;
66966;SDS011;53900;51.468;-2.586;2023-06-04T04:32:29;5.35;;;2.17;;
66966;SDS011;53900;51.468;-2.586;2023-06-04T04:34:55;5.97;;;2.38;;
66966;SDS011;53900;51.468;-2.586;2023-06-04T04:37:22;11.10;;;2.78;;
66966;SDS011;53900;51.468;-2.586;2023-06-04T04:39:47;7.53;;;2.25;;
66966;SDS011;53900;51.468;-2.586;2023-06-04T04:42:12;10.30;;;2.38;;
66966;SDS011;53900;51.468;-2.586;2023-06-04T04:44:37;8.50;;;2.53;;
66966;SDS011;53900;51.468;-2.586;2023-06-04T04:47:03;3.42;;;2.28;;
66966;SDS011;53900;51.468;-2.586;2023-06-04T04:49:28;10.52;;;2.58;;
66966;SDS011;53900;51.468;-2.586;2023-06-04T04:51:53;7.82;;;2.20;;
66966;SDS011;53900;51.468;-2.586;2023-06-04T04:54:18;10.30;;;2.42;;
66966;SDS011;53900;51.468;-2.586;2023-06-04T04:56:43;6.68;;;2.20;;
66966;SDS011;53900;51.468;-2.586;2023-06-04T04:59:09;4.60;;;1.77;;
66966;SDS011;53900;51.468;-2.586;2023-06-04T05:01:34;6.57;;;2.45;;
66966;SDS011;53900;51.468;-2.586;2023-06-04T05:03:59;11.88;;;2.45;;
66966;SDS011;53900;51.468;-2.586;2023-06-04T05:06:24;6.20;;;2.00;;
66966;SDS011;53900;51.468;-2.586;2023-06-04T05:08:50;5.97;;;2.15;;
66966;SDS011;53900;51.468;-2.586;2023-06-04T05:11:15;9.45;;;2.25;;
66966;SDS011;53900;51.468;-2.586;2023-06-04T05:13:40;9.13;;;2.50;;
66966;SDS011;53900;51.468;-2.586;2023-06-04T05:16:08;11.05;;;2.30;;
66966;SDS011;53900;51.468;-2.586;2023-06-04T05:18:39;10.10;;;2.22;;
66966;SDS011;53900;51.468;-2.586;2023-06-04T05:21:09;13.18;;;2.58;;
66966;SDS011;53900;51.468;-2.586;2023-06-04T05:23:37;8.85;;;2.67;;
66966;SDS011;53900;51.468;-2.586;2023-06-04T05:26:02;6.88;;;2.42;;
66966;SDS011;53900;51.468;-2.586;2023-06-04T05:28:28;6.07;;;2.22;;
66966;SDS011;53900;51.468;-2.586;2023-06-04T05:30:53;10.77;;;2.58;;
66966;SDS011;53900;51.468;-2.586;2023-06-04T05:33:24;10.70;;;3.55;;
66966;SDS011;53900;51.468;-2.586;2023-06-04T05:35:49;8.18;;;3.10;;
66966;SDS011;53900;51.468;-2.586;2023-06-04T05:38:14;7.13;;;2.38;;
66966;SDS011;53900;51.468;-2.586;2023-06-04T05:40:43;9.02;;;2.70;;
66966;SDS011;53900;51.468;-2.586;2023-06-04T05:43:08;6.15;;;2.30;;
66966;SDS011;53900;51.468;-2.586;2023-06-04T05:45:34;8.60;;;2.08;;
66966;SDS011;53900;51.468;-2.586;2023-06-04T05:47:59;8.48;;;2.30;;
66966;SDS011;53900;51.468;-2.586;2023-06-04T05:50:24;6.68;;;2.05;;
66966;SDS011;53900;51.468;-2.586;2023-06-04T05:52:49;12.30;;;2.58;;
66966;SDS011;53900;51.468;-2.586;2023-06-04T05:55:15;7.35;;;2.40;;
66966;SDS011;53900;51.468;-2.586;2023-06-04T05:57:41;6.85;;;2.17;;
66966;SDS011;53900;51.468;-2.586;2023-06-04T06:00:07;6.75;;;1.95;;
66966;SDS011;53900;51.468;-2.586;2023-06-04T06:02:35;4.72;;;1.92;;
66966;SDS011;53900;51.468;-2.586;2023-06-04T06:05:01;7.15;;;2.15;;
66966;SDS011;53900;51.468;-2.586;2023-06-04T06:07:26;8.45;;;2.60;;
66966;SDS011;53900;51.468;-2.586;2023-06-04T06:09:52;9.00;;;2.58;;
66966;SDS011;53900;51.468;-2.586;2023-06-04T06:12:17;12.20;;;2.35;;
66966;SDS011;53900;51.468;-2.586;2023-06-04T06:14:42;6.72;;;2.33;;
66966;SDS011;53900;51.468;-2.586;2023-06-04T06:17:07;12.77;;;2.55;;
66966;SDS011;53900;51.468;-2.586;2023-06-04T06:19:32;8.35;;;2.17;;
66966;SDS011;53900;51.468;-2.586;2023-06-04T06:21:58;9.32;;;2.60;;
66966;SDS011;53900;51.468;-2.586;2023-06-04T06:24:23;6.53;;;2.40;;
66966;SDS011;53900;51.468;-2.586;2023-06-04T06:26:48;7.95;;;2.50;;
66966;SDS011;53900;51.468;-2.586;2023-06-04T06:29:14;10.73;;;3.00;;
66966;SDS011;53900;51.468;-2.586;2023-06-04T06:31:39;9.82;;;2.38;;
66966;SDS011;53900;51.468;-2.586;2023-06-04T06:34:05;9.80;;;2.83;;
66966;SDS011;53900;51.468;-2.586;2023-06-04T06:36:30;7.68;;;2.28;;
66966;SDS011;53900;51.468;-2.586;2023-06-04T06:38:55;7.22;;;2.85;;
66966;SDS011;53900;51.468;-2.586;2023-06-04T06:41:21;9.50;;;2.42;;
66966;SDS011;53900;51.468;-2.586;2023-06-04T06:43:46;15.10;;;2.55;;
66966;SDS011;53900;51.468;-2.586;2023-06-04T06:46:12;10.40;;;2.58;;
66966;SDS011;53900;51.468;-2.586;2023-06-04T06:48:37;7.15;;;2.60;;
66966;SDS011;53900;51.468;-2.586;2023-06-04T06:51:02;8.05;;;2.75;;
66966;SDS011;53900;51.468;-2.586;2023-06-04T06:53:27;5.90;;;2.45;;
66966;SDS011;53900;51.468;-2.586;2023-06-04T06:55:52;10.30;;;2.58;;
66966;SDS011;53900;51.468;-2.586;2023-06-04T06:58:18;7.70;;;2.50;;
66966;SDS011;53900;51.468;-2.586;2023-06-04T07:00:43;6.85;;;2.75;;
66966;SDS011;53900;51.468;-2.586;2023-06-04T07:03:08;8.88;;;2.35;;
66966;SDS011;53900;51.468;-2.586;2023-06-04T07:05:33;12.30;;;2.63;;
66966;SDS011;53900;51.468;-2.586;2023-06-04T07:07:58;9.10;;;3.20;;
66966;SDS011;53900;51.468;-2.586;2023-06-04T07:10:25;10.32;;;2.28;;
66966;SDS011;53900;51.468;-2.586;2023-06-04T07:12:51;11.00;;;2.58;;
66966;SDS011;53900;51.468;-2.586;2023-06-04T07:15:16;8.30;;;2.53;;
66966;SDS011;53900;51.468;-2.586;2023-06-04T07:17:41;9.05;;;2.50;;
66966;SDS011;53900;51.468;-2.586;2023-06-04T07:20:07;5.00;;;2.38;;
66966;SDS011;53900;51.468;-2.586;2023-06-04T07:22:33;4.45;;;2.17;;
66966;SDS011;53900;51.468;-2.586;2023-06-04T07:24:59;8.05;;;2.60;;
66966;SDS011;53900;51.468;-2.586;2023-06-04T07:27:24;12.80;;;2.83;;
66966;SDS011;53900;51.468;-2.586;2023-06-04T07:29:49;10.52;;;2.67;;
66966;SDS011;53900;51.468;-2.586;2023-06-04T07:32:14;9.27;;;2.50;;
66966;SDS011;53900;51.468;-2.586;2023-06-04T07:34:40;5.82;;;2.13;;
66966;SDS011;53900;51.468;-2.586;2023-06-04T07:37:05;10.50;;;2.38;;
66966;SDS011;53900;51.468;-2.586;2023-06-04T07:39:31;6.53;;;2.20;;
66966;SDS011;53900;51.468;-2.586;2023-06-04T07:41:57;9.52;;;2.38;;
66966;SDS011;53900;51.468;-2.586;2023-06-04T07:44:22;6.50;;;2.05;;
66966;SDS011;53900;51.468;-2.586;2023-06-04T07:46:47;6.05;;;2.20;;
66966;SDS011;53900;51.468;-2.586;2023-06-04T07:49:13;4.40;;;2.00;;
66966;SDS011;53900;51.468;-2.586;2023-06-04T07:51:38;7.68;;;2.30;;
66966;SDS011;53900;51.468;-2.586;2023-06-04T07:54:03;5.43;;;2.22;;
66966;SDS011;53900;51.468;-2.586;2023-06-04T07:56:28;6.43;;;1.95;;
66966;SDS011;53900;51.468;-2.586;2023-06-04T07:58:54;7.03;;;2.28;;
66966;SDS011;53900;51.468;-2.586;2023-06-04T08:01:20;5.72;;;2.03;;
66966;SDS011;53900;51.468;-2.586;2023-06-04T08:03:46;8.32;;;2.08;;
66966;SDS011;53900;51.468;-2.586;2023-06-04T08:06:11;9.63;;;2.08;;
66966;SDS011;53900;51.468;-2.586;2023-06-04T08:08:41;7.57;;;2.00;;
66966;SDS011;53900;51.468;-2.586;2023-06-04T08:11:07;6.50;;;2.00;;
66966;SDS011;53900;51.468;-2.586;2023-06-04T08:13:32;8.60;;;2.10;;
66966;SDS011;53900;51.468;-2.586;2023-06-04T08:15:57;7.13;;;2.25;;
66966;SDS011;53900;51.468;-2.586;2023-06-04T08:18:22;7.50;;;2.53;;
66966;SDS011;53900;51.468;-2.586;2023-06-04T08:20:47;6.35;;;1.88;;
66966;SDS011;53900;51.468;-2.586;2023-06-04T08:23:13;5.78;;;2.08;;
66966;SDS011;53900;51.468;-2.586;2023-06-04T08:25:38;4.30;;;1.98;;
66966;SDS011;53900;51.468;-2.586;2023-06-04T08:28:03;4.35;;;1.88;;
66966;SDS011;53900;51.468;-2.586;2023-06-04T08:30:28;4.63;;;1.95;;
66966;SDS011;53900;51.468;-2.586;2023-06-04T08:32:54;7.38;;;2.03;;
66966;SDS011;53900;51.468;-2.586;2023-06-04T08:35:19;4.78;;;1.80;;
66966;SDS011;53900;51.468;-2.586;2023-06-04T08:37:44;5.53;;;2.03;;
66966;SDS011;53900;51.468;-2.586;2023-06-04T08:40:10;4.80;;;2.00;;
66966;SDS011;53900;51.468;-2.586;2023-06-04T08:42:42;3.72;;;1.83;;
66966;SDS011;53900;51.468;-2.586;2023-06-04T08:45:09;4.50;;;1.73;;
66966;SDS011;53900;51.468;-2.586;2023-06-04T08:47:36;4.25;;;1.83;;
66966;SDS011;53900;51.468;-2.586;2023-06-04T08:50:02;7.35;;;1.95;;
66966;SDS011;53900;51.468;-2.586;2023-06-04T08:52:27;6.53;;;1.80;;
66966;SDS011;53900;51.468;-2.586;2023-06-04T08:54:53;5.50;;;1.80;;
66966;SDS011;53900;51.468;-2.586;2023-06-04T08:57:18;3.30;;;1.90;;
66966;SDS011;53900;51.468;-2.586;2023-06-04T08:59:45;4.55;;;1.90;;
66966;SDS011;53900;51.468;-2.586;2023-06-04T09:02:10;9.98;;;2.13;;
66966;SDS011;53900;51.468;-2.586;2023-06-04T09:04:36;5.38;;;1.85;;
66966;SDS011;53900;51.468;-2.586;2023-06-04T09:07:01;4.75;;;1.85;;
66966;SDS011;53900;51.468;-2.586;2023-06-04T09:09:27;9.30;;;1.90;;
66966;SDS011;53900;51.468;-2.586;2023-06-04T09:11:55;3.80;;;1.63;;
66966;SDS011;53900;51.468;-2.586;2023-06-04T09:14:21;3.78;;;1.60;;
66966;SDS011;53900;51.468;-2.586;2023-06-04T09:16:47;9.18;;;1.67;;
66966;SDS011;53900;51.468;-2.586;2023-06-04T09:19:13;4.43;;;1.63;;
66966;SDS011;53900;51.468;-2.586;2023-06-04T09:21:51;5.35;;;1.70;;
66966;SDS011;53900;51.468;-2.586;2023-06-04T09:24:17;4.28;;;1.58;;
66966;SDS011;53900;51.468;-2.586;2023-06-04T09:26:43;4.63;;;1.77;;
66966;SDS011;53900;51.468;-2.586;2023-06-04T09:29:08;4.53;;;1.73;;
66966;SDS011;53900;51.468;-2.586;2023-06-04T09:31:34;3.72;;;1.58;;
66966;SDS011;53900;51.468;-2.586;2023-06-04T09:34:02;4.72;;;1.50;;
66966;SDS011;53900;51.468;-2.586;2023-06-04T09:36:30;3.35;;;1.10;;
66966;SDS011;53900;51.468;-2.586;2023-06-04T09:38:56;4.25;;;1.50;;
66966;SDS011;53900;51.468;-2.586;2023-06-04T09:41:21;2.08;;;1.02;;
66966;SDS011;53900;51.468;-2.586;2023-06-04T09:43:46;4.22;;;1.15;;
66966;SDS011;53900;51.468;-2.586;2023-06-04T09:46:15;4.90;;;1.20;;
66966;SDS011;53900;51.468;-2.586;2023-06-04T09:48:43;2.97;;;1.10;;
66966;SDS011;53900;51.468;-2.586;2023-06-04T09:51:09;3.33;;;1.15;;
66966;SDS011;53900;51.468;-2.586;2023-06-04T09:53:35;3.42;;;1.10;;
66966;SDS011;53900;51.468;-2.586;2023-06-04T09:56:01;1.85;;;1.08;;
66966;SDS011;53900;51.468;-2.586;2023-06-04T09:58:28;17.50;;;1.52;;
66966;SDS011;53900;51.468;-2.586;2023-06-04T10:00:54;4.88;;;1.05;;
66966;SDS011;53900;51.468;-2.586;2023-06-04T10:03:20;5.43;;;1.13;;
66966;SDS011;53900;51.468;-2.586;2023-06-04T10:08:15;7.70;;;1.42;;
66966;SDS011;53900;51.468;-2.586;2023-06-04T10:10:42;4.45;;;1.20;;
66966;SDS011;53900;51.468;-2.586;2023-06-04T10:13:14;3.53;;;1.02;;
66966;SDS011;53900;51.468;-2.586;2023-06-04T10:15:41;3.05;;;1.10;;
66966;SDS011;53900;51.468;-2.586;2023-06-04T10:18:07;3.85;;;1.40;;
66966;SDS011;53900;51.468;-2.586;2023-06-04T10:20:32;3.92;;;1.42;;
66966;SDS011;53900;51.468;-2.586;2023-06-04T10:22:58;3.70;;;1.10;;
66966;SDS011;53900;51.468;-2.586;2023-06-04T10:25:23;6.10;;;1.35;;
66966;SDS011;53900;51.468;-2.586;2023-06-04T10:27:50;5.10;;;1.45;;
66966;SDS011;53900;51.468;-2.586;2023-06-04T10:30:15;2.30;;;1.40;;
66966;SDS011;53900;51.468;-2.586;2023-06-04T10:32:40;6.63;;;1.63;;
66966;SDS011;53900;51.468;-2.586;2023-06-04T10:35:06;3.78;;;1.55;;
66966;SDS011;53900;51.468;-2.586;2023-06-04T10:37:33;2.97;;;1.33;;
66966;SDS011;53900;51.468;-2.586;2023-06-04T10:39:58;4.63;;;1.30;;
66966;SDS011;53900;51.468;-2.586;2023-06-04T10:42:24;4.60;;;1.52;;
66966;SDS011;53900;51.468;-2.586;2023-06-04T10:44:50;5.20;;;1.58;;
66966;SDS011;53900;51.468;-2.586;2023-06-04T10:47:19;4.05;;;1.48;;
66966;SDS011;53900;51.468;-2.586;2023-06-04T10:49:45;4.55;;;2.30;;
66966;SDS011;53900;51.468;-2.586;2023-06-04T10:52:11;4.65;;;1.88;;
66966;SDS011;53900;51.468;-2.586;2023-06-04T10:54:36;6.05;;;1.40;;
66966;SDS011;53900;51.468;-2.586;2023-06-04T10:57:09;4.43;;;1.40;;
66966;SDS011;53900;51.468;-2.586;2023-06-04T10:59:35;1.77;;;1.13;;
66966;SDS011;53900;51.468;-2.586;2023-06-04T11:02:07;5.97;;;1.50;;
66966;SDS011;53900;51.468;-2.586;2023-06-04T11:04:32;5.53;;;1.30;;
66966;SDS011;53900;51.468;-2.586;2023-06-04T11:07:06;10.32;;;1.45;;
66966;SDS011;53900;51.468;-2.586;2023-06-04T11:09:35;6.03;;;1.33;;
66966;SDS011;53900;51.468;-2.586;2023-06-04T11:12:01;3.20;;;1.33;;
66966;SDS011;53900;51.468;-2.586;2023-06-04T11:14:26;2.35;;;1.17;;
66966;SDS011;53900;51.468;-2.586;2023-06-04T11:16:52;4.00;;;1.40;;
66966;SDS011;53900;51.468;-2.586;2023-06-04T11:19:17;5.82;;;1.23;;
66966;SDS011;53900;51.468;-2.586;2023-06-04T11:21:43;3.38;;;1.17;;
66966;SDS011;53900;51.468;-2.586;2023-06-04T11:24:08;3.33;;;1.23;;
66966;SDS011;53900;51.468;-2.586;2023-06-04T11:26:33;2.00;;;0.90;;
66966;SDS011;53900;51.468;-2.586;2023-06-04T11:29:00;1.90;;;0.98;;
66966;SDS011;53900;51.468;-2.586;2023-06-04T11:31:25;5.43;;;1.42;;
66966;SDS011;53900;51.468;-2.586;2023-06-04T11:33:51;2.17;;;1.10;;
66966;SDS011;53900;51.468;-2.586;2023-06-04T11:36:22;3.92;;;1.40;;
66966;SDS011;53900;51.468;-2.586;2023-06-04T11:38:55;3.30;;;1.80;;
66966;SDS011;53900;51.468;-2.586;2023-06-04T11:41:21;2.33;;;1.20;;
66966;SDS011;53900;51.468;-2.586;2023-06-04T11:43:50;3.40;;;1.10;;
66966;SDS011;53900;51.468;-2.586;2023-06-04T11:46:15;6.32;;;1.10;;
66966;SDS011;53900;51.468;-2.586;2023-06-04T11:48:40;4.13;;;1.20;;
66966;SDS011;53900;51.468;-2.586;2023-06-04T11:51:06;2.10;;;1.13;;
66966;SDS011;53900;51.468;-2.586;2023-06-04T11:53:33;2.80;;;1.20;;
66966;SDS011;53900;51.468;-2.586;2023-06-04T11:55:58;3.33;;;1.10;;
66966;SDS011;53900;51.468;-2.586;2023-06-04T11:58:23;2.00;;;1.05;;
66966;SDS011;53900;51.468;-2.586;2023-06-04T12:00:48;2.05;;;1.30;;
66966;SDS011;53900;51.468;-2.586;2023-06-04T12:03:14;4.47;;;1.20;;
66966;SDS011;53900;51.468;-2.586;2023-06-04T12:05:39;4.97;;;1.23;;
66966;SDS011;53900;51.468;-2.586;2023-06-04T12:08:05;2.10;;;1.13;;
66966;SDS011;53900;51.468;-2.586;2023-06-04T12:10:36;4.57;;;1.30;;
66966;SDS011;53900;51.468;-2.586;2023-06-04T12:13:01;2.88;;;1.30;;
66966;SDS011;53900;51.468;-2.586;2023-06-04T12:15:26;4.75;;;1.35;;
66966;SDS011;53900;51.468;-2.586;2023-06-04T12:17:52;2.90;;;1.20;;
66966;SDS011;53900;51.468;-2.586;2023-06-04T12:20:18;5.97;;;1.25;;
66966;SDS011;53900;51.468;-2.586;2023-06-04T12:22:47;3.55;;;1.20;;
66966;SDS011;53900;51.468;-2.586;2023-06-04T12:25:22;1.77;;;1.20;;
66966;SDS011;53900;51.468;-2.586;2023-06-04T12:27:48;2.03;;;1.30;;
66966;SDS011;53900;51.468;-2.586;2023-06-04T12:30:13;3.38;;;1.20;;
66966;SDS011;53900;51.468;-2.586;2023-06-04T12:32:41;4.20;;;1.10;;
66966;SDS011;53900;51.468;-2.586;2023-06-04T12:35:07;2.88;;;1.05;;
66966;SDS011;53900;51.468;-2.586;2023-06-04T12:37:32;2.85;;;1.20;;
66966;SDS011;53900;51.468;-2.586;2023-06-04T12:39:57;2.50;;;1.10;;
66966;SDS011;53900;51.468;-2.586;2023-06-04T12:42:23;3.03;;;1.27;;
66966;SDS011;53900;51.468;-2.586;2023-06-04T12:44:48;7.55;;;1.25;;
66966;SDS011;53900;51.468;-2.586;2023-06-04T12:47:13;6.38;;;1.20;;
66966;SDS011;53900;51.468;-2.586;2023-06-04T12:49:39;4.15;;;1.33;;
66966;SDS011;53900;51.468;-2.586;2023-06-04T12:52:05;5.00;;;1.38;;
66966;SDS011;53900;51.468;-2.586;2023-06-04T12:54:30;2.73;;;1.30;;
66966;SDS011;53900;51.468;-2.586;2023-06-04T12:56:55;2.03;;;1.00;;
66966;SDS011;53900;51.468;-2.586;2023-06-04T12:59:21;4.25;;;1.30;;
66966;SDS011;53900;51.468;-2.586;2023-06-04T13:01:47;4.22;;;0.95;;
66966;SDS011;53900;51.468;-2.586;2023-06-04T13:04:12;5.60;;;1.35;;
66966;SDS011;53900;51.468;-2.586;2023-06-04T13:06:37;3.45;;;1.55;;
66966;SDS011;53900;51.468;-2.586;2023-06-04T13:09:03;2.38;;;1.40;;
66966;SDS011;53900;51.468;-2.586;2023-06-04T13:11:33;4.15;;;1.60;;
66966;SDS011;53900;51.468;-2.586;2023-06-04T13:13:59;5.43;;;1.17;;
66966;SDS011;53900;51.468;-2.586;2023-06-04T13:16:24;5.03;;;1.25;;
66966;SDS011;53900;51.468;-2.586;2023-06-04T13:18:49;4.95;;;1.30;;
66966;SDS011;53900;51.468;-2.586;2023-06-04T13:21:15;3.40;;;1.20;;
66966;SDS011;53900;51.468;-2.586;2023-06-04T13:23:40;5.53;;;1.30;;
66966;SDS011;53900;51.468;-2.586;2023-06-04T13:26:05;3.40;;;1.30;;
66966;SDS011;53900;51.468;-2.586;2023-06-04T13:28:30;3.92;;;1.35;;
66966;SDS011;53900;51.468;-2.586;2023-06-04T13:30:55;3.70;;;1.13;;
66966;SDS011;53900;51.468;-2.586;2023-06-04T13:33:21;5.25;;;1.63;;
66966;SDS011;53900;51.468;-2.586;2023-06-04T13:35:46;2.25;;;1.10;;
66966;SDS011;53900;51.468;-2.586;2023-06-04T13:38:11;2.20;;;1.20;;
66966;SDS011;53900;51.468;-2.586;2023-06-04T13:40:37;3.95;;;1.15;;
66966;SDS011;53900;51.468;-2.586;2023-06-04T13:43:02;3.08;;;1.63;;
66966;SDS011;53900;51.468;-2.586;2023-06-04T13:45:28;3.50;;;1.30;;
66966;SDS011;53900;51.468;-2.586;2023-06-04T13:47:53;4.80;;;1.30;;
66966;SDS011;53900;51.468;-2.586;2023-06-04T13:50:18;2.15;;;1.27;;
66966;SDS011;53900;51.468;-2.586;2023-06-04T13:52:44;4.43;;;1.05;;
66966;SDS011;53900;51.468;-2.586;2023-06-04T13:55:09;2.15;;;1.23;;
66966;SDS011;53900;51.468;-2.586;2023-06-04T13:57:35;3.35;;;1.48;;
66966;SDS011;53900;51.468;-2.586;2023-06-04T14:00:00;3.27;;;1.13;;
66966;SDS011;53900;51.468;-2.586;2023-06-04T14:02:25;1.77;;;1.02;;
66966;SDS011;53900;51.468;-2.586;2023-06-04T14:04:52;5.60;;;1.58;;
66966;SDS011;53900;51.468;-2.586;2023-06-04T14:07:17;6.10;;;1.40;;
66966;SDS011;53900;51.468;-2.586;2023-06-04T14:09:42;8.27;;;1.33;;
66966;SDS011;53900;51.468;-2.586;2023-06-04T14:12:08;4.45;;;1.30;;
66966;SDS011;53900;51.468;-2.586;2023-06-04T14:14:33;3.28;;;1.25;;
66966;SDS011;53900;51.468;-2.586;2023-06-04T14:17:05;3.38;;;1.50;;
66966;SDS011;53900;51.468;-2.586;2023-06-04T14:19:31;4.25;;;1.40;;
66966;SDS011;53900;51.468;-2.586;2023-06-04T14:21:56;4.03;;;1.20;;
66966;SDS011;53900;51.468;-2.586;2023-06-04T14:24:22;5.90;;;1.50;;
66966;SDS011;53900;51.468;-2.586;2023-06-04T14:26:47;5.60;;;1.25;;
66966;SDS011;53900;51.468;-2.586;2023-06-04T14:29:12;4.43;;;1.50;;
66966;SDS011;53900;51.468;-2.586;2023-06-04T14:31:38;2.03;;;1.23;;